sensor_id;sensor_type;location;lat;lon;timestamp;pressure;altitude;pressure_sealevel;temperature;humidity
58385;BME280;44185;47.844;8.966;2023-02-14T00:01:06;98003.47;;;-1.16;100.00
58385;BME280;44185;47.844;8.966;2023-02-14T00:03:31;98000.88;;;-1.14;100.00
58385;BME280;44185;47.844;8.966;2023-02-14T00:06:04;97998.28;;;-1.16;100.00
58385;BME280;44185;47.844;8.966;2023-02-14T00:08:30;98001.69;;;-1.10;100.00
58385;BME280;44185;47.844;8.966;2023-02-14T00:10:56;97999.06;;;-1.07;100.00
58385;BME280;44185;47.844;8.966;2023-02-14T00:13:21;97999.94;;;-1.07;100.00
58385;BME280;44185;47.844;8.966;2023-02-14T00:15:47;98000.81;;;-1.09;100.00
58385;BME280;44185;47.844;8.966;2023-02-14T00:18:12;97999.03;;;-1.06;100.00
58385;BME280;44185;47.844;8.966;2023-02-14T00:20:38;97996.44;;;-1.04;100.00
58385;BME280;44185;47.844;8.966;2023-02-14T00:23:05;98001.59;;;-1.03;100.00
58385;BME280;44185;47.844;8.966;2023-02-14T00:25:32;98000.88;;;-1.16;100.00
58385;BME280;44185;47.844;8.966;2023-02-14T00:27:57;97993.94;;;-1.15;100.00
58385;BME280;44185;47.844;8.966;2023-02-14T00:30:23;97992.22;;;-1.15;100.00
58385;BME280;44185;47.844;8.966;2023-02-14T00:32:48;98000.81;;;-1.09;100.00
58385;BME280;44185;47.844;8.966;2023-02-14T00:35:14;97993.03;;;-1.09;100.00
58385;BME280;44185;47.844;8.966;2023-02-14T00:37:39;98000.75;;;-1.02;100.00
58385;BME280;44185;47.844;8.966;2023-02-14T00:40:07;98002.56;;;-1.13;100.00
58385;BME280;44185;47.844;8.966;2023-02-14T00:42:33;98006.03;;;-1.09;100.00
58385;BME280;44185;47.844;8.966;2023-02-14T00:44:58;98008.69;;;-1.19;100.00
58385;BME280;44185;47.844;8.966;2023-02-14T00:47:24;98005.19;;;-1.12;100.00
58385;BME280;44185;47.844;8.966;2023-02-14T00:49:49;97996.53;;;-1.15;100.00
58385;BME280;44185;47.844;8.966;2023-02-14T00:52:15;97992.25;;;-1.18;100.00
58385;BME280;44185;47.844;8.966;2023-02-14T00:54:40;97990.47;;;-1.14;100.00
58385;BME280;44185;47.844;8.966;2023-02-14T00:57:07;97995.72;;;-1.20;100.00
58385;BME280;44185;47.844;8.966;2023-02-14T00:59:33;97996.53;;;-1.17;100.00
58385;BME280;44185;47.844;8.966;2023-02-14T01:01:58;97994.00;;;-1.20;100.00
58385;BME280;44185;47.844;8.966;2023-02-14T01:04:24;98003.47;;;-1.16;100.00
58385;BME280;44185;47.844;8.966;2023-02-14T01:06:49;97993.19;;;-1.30;100.00
58385;BME280;44185;47.844;8.966;2023-02-14T01:09:14;97998.44;;;-1.31;100.00
58385;BME280;44185;47.844;8.966;2023-02-14T01:11:40;97998.44;;;-1.31;100.00
58385;BME280;44185;47.844;8.966;2023-02-14T01:14:07;97993.25;;;-1.35;100.00
58385;BME280;44185;47.844;8.966;2023-02-14T01:16:32;97988.91;;;-1.31;100.00
58385;BME280;44185;47.844;8.966;2023-02-14T01:18:59;97990.59;;;-1.30;100.00
58385;BME280;44185;47.844;8.966;2023-02-14T01:21:27;97988.84;;;-1.26;100.00
58385;BME280;44185;47.844;8.966;2023-02-14T01:23:54;97985.38;;;-1.27;100.00
58385;BME280;44185;47.844;8.966;2023-02-14T01:26:21;97983.69;;;-1.32;100.00
58385;BME280;44185;47.844;8.966;2023-02-14T01:28:47;97988.94;;;-1.37;100.00
58385;BME280;44185;47.844;8.966;2023-02-14T01:31:16;97977.66;;;-1.35;100.00
58385;BME280;44185;47.844;8.966;2023-02-14T01:33:43;97983.03;;;-1.53;100.00
58385;BME280;44185;47.844;8.966;2023-02-14T01:36:15;97983.97;;;-1.61;100.00
58385;BME280;44185;47.844;8.966;2023-02-14T01:38:40;97985.66;;;-1.58;100.00
58385;BME280;44185;47.844;8.966;2023-02-14T01:41:06;97985.59;;;-1.50;100.00
58385;BME280;44185;47.844;8.966;2023-02-14T01:43:50;97978.81;;;-1.65;100.00
58385;BME280;44185;47.844;8.966;2023-02-14T01:46:17;97972.63;;;-1.49;100.00
58385;BME280;44185;47.844;8.966;2023-02-14T01:48:43;97974.34;;;-1.51;100.00
58385;BME280;44185;47.844;8.966;2023-02-14T01:51:08;97969.94;;;-1.42;100.00
58385;BME280;44185;47.844;8.966;2023-02-14T01:53:34;97965.72;;;-1.51;100.00
58385;BME280;44185;47.844;8.966;2023-02-14T01:56:04;97962.25;;;-1.49;100.00
58385;BME280;44185;47.844;8.966;2023-02-14T01:58:32;97970.03;;;-1.49;100.00
58385;BME280;44185;47.844;8.966;2023-02-14T02:01:00;97972.66;;;-1.57;100.00
58385;BME280;44185;47.844;8.966;2023-02-14T02:03:30;97966.50;;;-1.44;100.00
58385;BME280;44185;47.844;8.966;2023-02-14T02:06:00;97966.53;;;-1.48;100.00
58385;BME280;44185;47.844;8.966;2023-02-14T02:08:28;97961.38;;;-1.54;100.00
58385;BME280;44185;47.844;8.966;2023-02-14T02:10:53;97964.91;;;-1.58;100.00
58385;BME280;44185;47.844;8.966;2023-02-14T02:13:20;97961.47;;;-1.60;100.00
58385;BME280;44185;47.844;8.966;2023-02-14T02:15:54;97959.72;;;-1.61;100.00
58385;BME280;44185;47.844;8.966;2023-02-14T02:18:29;97960.63;;;-1.65;100.00
58385;BME280;44185;47.844;8.966;2023-02-14T02:24:20;97965.91;;;-1.75;100.00
58385;BME280;44185;47.844;8.966;2023-02-14T02:27:18;97960.78;;;-1.81;100.00
58385;BME280;44185;47.844;8.966;2023-02-14T02:35:57;97953.56;;;-1.48;100.00
58385;BME280;44185;47.844;8.966;2023-02-14T02:38:36;97953.53;;;-1.44;100.00
58385;BME280;44185;47.844;8.966;2023-02-14T02:41:12;97950.88;;;-1.40;100.00
58385;BME280;44185;47.844;8.966;2023-02-14T02:43:45;97949.13;;;-1.38;100.00
58385;BME280;44185;47.844;8.966;2023-02-14T02:46:20;97950.31;;;-1.70;100.00
58385;BME280;44185;47.844;8.966;2023-02-14T02:48:57;97951.06;;;-1.60;100.00
58385;BME280;44185;47.844;8.966;2023-02-14T02:51:35;97944.16;;;-1.61;100.00
58385;BME280;44185;47.844;8.966;2023-02-14T02:54:07;97952.00;;;-1.69;100.00
58385;BME280;44185;47.844;8.966;2023-02-14T02:56:36;97946.94;;;-1.83;100.00
58385;BME280;44185;47.844;8.966;2023-02-14T02:59:09;97945.94;;;-1.70;100.00
58385;BME280;44185;47.844;8.966;2023-02-14T03:01:38;97951.94;;;-1.60;100.00
58385;BME280;44185;47.844;8.966;2023-02-14T03:04:06;97947.56;;;-1.56;100.00
58385;BME280;44185;47.844;8.966;2023-02-14T03:06:35;97938.06;;;-1.57;100.00
58385;BME280;44185;47.844;8.966;2023-02-14T03:09:10;97937.19;;;-1.54;100.00
58385;BME280;44185;47.844;8.966;2023-02-14T03:11:38;97931.19;;;-1.60;100.00
58385;BME280;44185;47.844;8.966;2023-02-14T03:14:17;97928.66;;;-1.69;100.00
58385;BME280;44185;47.844;8.966;2023-02-14T03:16:58;97929.38;;;-1.56;100.00
58385;BME280;44185;47.844;8.966;2023-02-14T03:19:35;97928.53;;;-1.55;100.00
58385;BME280;44185;47.844;8.966;2023-02-14T03:22:15;97923.38;;;-1.61;100.00
58385;BME280;44185;47.844;8.966;2023-02-14T03:24:48;97924.28;;;-1.64;100.00
58385;BME280;44185;47.844;8.966;2023-02-14T03:27:21;97922.41;;;-1.51;100.00
58385;BME280;44185;47.844;8.966;2023-02-14T03:29:56;97928.50;;;-1.52;100.00
58385;BME280;44185;47.844;8.966;2023-02-14T03:32:32;97919.91;;;-1.57;100.00
58385;BME280;44185;47.844;8.966;2023-02-14T03:35:06;97924.22;;;-1.59;100.00
58385;BME280;44185;47.844;8.966;2023-02-14T03:37:40;97936.44;;;-1.69;100.00
58385;BME280;44185;47.844;8.966;2023-02-14T03:40:12;97933.78;;;-1.64;100.00
58385;BME280;44185;47.844;8.966;2023-02-14T03:42:43;97935.56;;;-1.65;100.00
58385;BME280;44185;47.844;8.966;2023-02-14T03:45:15;97938.22;;;-1.73;100.00
58385;BME280;44185;47.844;8.966;2023-02-14T03:47:43;97940.69;;;-1.60;100.00
58385;BME280;44185;47.844;8.966;2023-02-14T03:50:13;97947.56;;;-1.56;100.00
58385;BME280;44185;47.844;8.966;2023-02-14T03:52:42;97942.38;;;-1.56;100.00
58385;BME280;44185;47.844;8.966;2023-02-14T03:55:10;97941.53;;;-1.58;100.00
58385;BME280;44185;47.844;8.966;2023-02-14T03:57:45;97937.31;;;-1.69;100.00
58385;BME280;44185;47.844;8.966;2023-02-14T04:00:14;97936.41;;;-1.66;100.00
58385;BME280;44185;47.844;8.966;2023-02-14T04:02:43;97938.97;;;-1.60;100.00
58385;BME280;44185;47.844;8.966;2023-02-14T04:05:13;97939.03;;;-1.68;100.00
58385;BME280;44185;47.844;8.966;2023-02-14T04:07:46;97938.97;;;-1.64;100.00
58385;BME280;44185;47.844;8.966;2023-02-14T04:10:11;97938.19;;;-1.71;100.00
58385;BME280;44185;47.844;8.966;2023-02-14T04:12:37;97936.50;;;-1.75;100.00
58385;BME280;44185;47.844;8.966;2023-02-14T04:15:03;97945.13;;;-1.73;100.00
58385;BME280;44185;47.844;8.966;2023-02-14T04:17:29;97946.94;;;-1.82;100.00
58385;BME280;44185;47.844;8.966;2023-02-14T04:19:54;97958.34;;;-2.03;100.00
58385;BME280;44185;47.844;8.966;2023-02-14T04:22:19;97954.03;;;-2.06;100.00
58385;BME280;44185;47.844;8.966;2023-02-14T04:24:46;97952.22;;;-1.91;100.00
58385;BME280;44185;47.844;8.966;2023-02-14T04:27:12;97956.53;;;-1.93;100.00
58385;BME280;44185;47.844;8.966;2023-02-14T04:29:40;97958.25;;;-1.94;100.00
58385;BME280;44185;47.844;8.966;2023-02-14T04:32:08;97958.31;;;-2.00;100.00
58385;BME280;44185;47.844;8.966;2023-02-14T04:34:34;97961.78;;;-2.01;100.00
58385;BME280;44185;47.844;8.966;2023-02-14T04:37:00;97966.91;;;-1.92;100.00
58385;BME280;44185;47.844;8.966;2023-02-14T04:39:25;97966.03;;;-1.92;100.00
58385;BME280;44185;47.844;8.966;2023-02-14T04:41:52;97972.00;;;-1.82;100.00
58385;BME280;44185;47.844;8.966;2023-02-14T04:44:17;97972.09;;;-1.88;100.00
58385;BME280;44185;47.844;8.966;2023-02-14T04:46:43;97965.22;;;-1.99;100.00
58385;BME280;44185;47.844;8.966;2023-02-14T04:49:08;97965.19;;;-1.93;100.00
58385;BME280;44185;47.844;8.966;2023-02-14T04:51:34;97966.91;;;-1.93;100.00
58385;BME280;44185;47.844;8.966;2023-02-14T04:53:59;97966.91;;;-1.96;100.00
58385;BME280;44185;47.844;8.966;2023-02-14T04:56:25;97961.75;;;-1.95;100.00
58385;BME280;44185;47.844;8.966;2023-02-14T04:58:51;97965.13;;;-1.85;100.00
58385;BME280;44185;47.844;8.966;2023-02-14T05:01:17;97954.69;;;-1.75;100.00
58385;BME280;44185;47.844;8.966;2023-02-14T05:03:42;97946.03;;;-1.76;100.00
58385;BME280;44185;47.844;8.966;2023-02-14T05:06:08;97948.63;;;-1.77;100.00
58385;BME280;44185;47.844;8.966;2023-02-14T05:08:33;97953.81;;;-1.77;100.00
58385;BME280;44185;47.844;8.966;2023-02-14T05:10:59;97943.41;;;-1.73;100.00
58385;BME280;44185;47.844;8.966;2023-02-14T05:13:24;97937.41;;;-1.81;100.00
58385;BME280;44185;47.844;8.966;2023-02-14T05:15:51;97942.63;;;-1.84;100.00
58385;BME280;44185;47.844;8.966;2023-02-14T05:18:16;97929.56;;;-1.73;100.00
58385;BME280;44185;47.844;8.966;2023-02-14T05:20:42;97931.22;;;-1.66;100.00
58385;BME280;44185;47.844;8.966;2023-02-14T05:23:08;97936.44;;;-1.69;100.00
58385;BME280;44185;47.844;8.966;2023-02-14T05:25:33;97938.16;;;-1.68;100.00
58385;BME280;44185;47.844;8.966;2023-02-14T05:27:59;97935.53;;;-1.63;100.00
58385;BME280;44185;47.844;8.966;2023-02-14T05:30:24;97929.50;;;-1.65;100.00
58385;BME280;44185;47.844;8.966;2023-02-14T05:32:51;97929.53;;;-1.70;100.00
58385;BME280;44185;47.844;8.966;2023-02-14T05:35:17;97918.34;;;-1.75;100.00
58385;BME280;44185;47.844;8.966;2023-02-14T05:37:42;97932.13;;;-1.70;100.00
58385;BME280;44185;47.844;8.966;2023-02-14T05:40:09;97929.53;;;-1.72;100.00
58385;BME280;44185;47.844;8.966;2023-02-14T05:42:35;97926.88;;;-1.67;100.00
58385;BME280;44185;47.844;8.966;2023-02-14T05:45:00;97937.28;;;-1.65;100.00
58385;BME280;44185;47.844;8.966;2023-02-14T05:47:26;97932.09;;;-1.65;100.00
58385;BME280;44185;47.844;8.966;2023-02-14T05:49:52;97938.06;;;-1.59;100.00
58385;BME280;44185;47.844;8.966;2023-02-14T05:52:18;97941.63;;;-1.69;100.00
58385;BME280;44185;47.844;8.966;2023-02-14T05:54:43;97942.59;;;-1.81;100.00
58385;BME280;44185;47.844;8.966;2023-02-14T05:57:09;97945.94;;;-1.70;100.00
58385;BME280;44185;47.844;8.966;2023-02-14T05:59:34;97945.94;;;-1.68;100.00
58385;BME280;44185;47.844;8.966;2023-02-14T06:02:00;97943.34;;;-1.68;100.00
58385;BME280;44185;47.844;8.966;2023-02-14T06:04:25;97952.81;;;-1.64;100.00
58385;BME280;44185;47.844;8.966;2023-02-14T06:06:52;97949.41;;;-1.69;100.00
58385;BME280;44185;47.844;8.966;2023-02-14T06:09:17;97945.88;;;-1.60;100.00
58385;BME280;44185;47.844;8.966;2023-02-14T06:11:43;97947.56;;;-1.56;100.00
58385;BME280;44185;47.844;8.966;2023-02-14T06:14:08;97951.97;;;-1.63;100.00
58385;BME280;44185;47.844;8.966;2023-02-14T06:16:34;97946.78;;;-1.64;100.00
58385;BME280;44185;47.844;8.966;2023-02-14T06:18:59;97950.19;;;-1.58;100.00
58385;BME280;44185;47.844;8.966;2023-02-14T06:21:24;97950.97;;;-1.49;100.00
58385;BME280;44185;47.844;8.966;2023-02-14T06:23:51;97955.34;;;-1.54;100.00
58385;BME280;44185;47.844;8.966;2023-02-14T06:26:17;97959.69;;;-1.57;100.00
58385;BME280;44185;47.844;8.966;2023-02-14T06:28:42;97962.38;;;-1.66;100.00
58385;BME280;44185;47.844;8.966;2023-02-14T06:31:14;97967.53;;;-1.64;100.00
58385;BME280;44185;47.844;8.966;2023-02-14T06:33:39;97970.16;;;-1.66;100.00
58385;BME280;44185;47.844;8.966;2023-02-14T06:36:06;97976.19;;;-1.64;100.00
58385;BME280;44185;47.844;8.966;2023-02-14T06:38:31;97980.56;;;-1.69;100.00
58385;BME280;44185;47.844;8.966;2023-02-14T06:41:03;97989.19;;;-1.67;100.00
58385;BME280;44185;47.844;8.966;2023-02-14T06:43:28;97988.50;;;-1.86;100.00
58385;BME280;44185;47.844;8.966;2023-02-14T06:45:53;97984.13;;;-1.81;100.00
58385;BME280;44185;47.844;8.966;2023-02-14T06:48:19;97990.13;;;-1.74;100.00
58385;BME280;44185;47.844;8.966;2023-02-14T06:50:45;97987.53;;;-1.73;100.00
58385;BME280;44185;47.844;8.966;2023-02-14T06:53:10;97991.81;;;-1.69;100.00
58385;BME280;44185;47.844;8.966;2023-02-14T06:55:36;97985.69;;;-1.60;100.00
58385;BME280;44185;47.844;8.966;2023-02-14T06:58:03;97992.63;;;-1.63;100.00
58385;BME280;44185;47.844;8.966;2023-02-14T07:00:28;97983.13;;;-1.63;100.00
58385;BME280;44185;47.844;8.966;2023-02-14T07:02:54;97991.72;;;-1.56;100.00
58385;BME280;44185;47.844;8.966;2023-02-14T07:05:19;97991.75;;;-1.61;100.00
58385;BME280;44185;47.844;8.966;2023-02-14T07:07:45;97983.84;;;-1.48;100.00
58385;BME280;44185;47.844;8.966;2023-02-14T07:10:11;97990.81;;;-1.52;100.00
58385;BME280;44185;47.844;8.966;2023-02-14T07:12:36;97996.88;;;-1.53;100.00
58385;BME280;44185;47.844;8.966;2023-02-14T07:15:04;98005.56;;;-1.55;100.00
58385;BME280;44185;47.844;8.966;2023-02-14T07:17:29;97999.47;;;-1.53;100.00
58385;BME280;44185;47.844;8.966;2023-02-14T07:19:54;98006.41;;;-1.57;100.00
58385;BME280;44185;47.844;8.966;2023-02-14T07:22:20;98001.22;;;-1.57;100.00
58385;BME280;44185;47.844;8.966;2023-02-14T07:24:45;98000.34;;;-1.54;100.00
58385;BME280;44185;47.844;8.966;2023-02-14T07:27:11;98005.69;;;-1.74;100.00
58385;BME280;44185;47.844;8.966;2023-02-14T07:29:36;98002.22;;;-1.75;100.00
58385;BME280;44185;47.844;8.966;2023-02-14T07:32:03;97996.94;;;-1.61;100.00
58385;BME280;44185;47.844;8.966;2023-02-14T07:34:29;97997.94;;;-1.77;100.00
58385;BME280;44185;47.844;8.966;2023-02-14T07:36:54;97992.84;;;-1.93;100.00
58385;BME280;44185;47.844;8.966;2023-02-14T07:39:20;97990.97;;;-1.72;100.00
58385;BME280;44185;47.844;8.966;2023-02-14T07:41:45;97983.09;;;-1.61;100.00
58385;BME280;44185;47.844;8.966;2023-02-14T07:44:11;97985.66;;;-1.57;100.00
58385;BME280;44185;47.844;8.966;2023-02-14T07:46:36;97979.53;;;-1.49;100.00
58385;BME280;44185;47.844;8.966;2023-02-14T07:49:03;97969.97;;;-1.41;100.00
58385;BME280;44185;47.844;8.966;2023-02-14T07:51:28;97975.97;;;-1.40;100.00
58385;BME280;44185;47.844;8.966;2023-02-14T07:53:54;97984.66;;;-1.41;100.00
58385;BME280;44185;47.844;8.966;2023-02-14T07:56:19;97983.78;;;-1.39;100.00
58385;BME280;44185;47.844;8.966;2023-02-14T07:58:45;97972.63;;;-1.49;100.00
58385;BME280;44185;47.844;8.966;2023-02-14T08:01:10;97982.13;;;-1.46;100.00
58385;BME280;44185;47.844;8.966;2023-02-14T08:03:36;97981.22;;;-1.45;100.00
58385;BME280;44185;47.844;8.966;2023-02-14T08:06:03;97979.38;;;-1.32;100.00
58385;BME280;44185;47.844;8.966;2023-02-14T08:08:29;97972.56;;;-1.41;100.00
58385;BME280;44185;47.844;8.966;2023-02-14T08:10:55;97977.56;;;-1.24;100.00
58385;BME280;44185;47.844;8.966;2023-02-14T08:13:21;97974.19;;;-1.35;100.00
58385;BME280;44185;47.844;8.966;2023-02-14T08:15:47;97974.97;;;-1.24;100.00
58385;BME280;44185;47.844;8.966;2023-02-14T08:18:13;97972.34;;;-1.22;100.00
58385;BME280;44185;47.844;8.966;2023-02-14T08:20:38;97975.91;;;-1.32;100.00
58385;BME280;44185;47.844;8.966;2023-02-14T08:23:05;97974.16;;;-1.29;100.00
58385;BME280;44185;47.844;8.966;2023-02-14T08:25:31;97975.75;;;-1.17;100.00
58385;BME280;44185;47.844;8.966;2023-02-14T08:27:56;97974.09;;;-1.23;100.00
58385;BME280;44185;47.844;8.966;2023-02-14T08:30:22;97974.84;;;-1.09;100.00
58385;BME280;44185;47.844;8.966;2023-02-14T08:32:48;97973.91;;;-1.05;100.00
58385;BME280;44185;47.844;8.966;2023-02-14T08:35:13;97969.63;;;-1.09;100.00
58385;BME280;44185;47.844;8.966;2023-02-14T08:37:39;97975.69;;;-1.10;100.00
58385;BME280;44185;47.844;8.966;2023-02-14T08:40:07;97978.31;;;-1.12;100.00
58385;BME280;44185;47.844;8.966;2023-02-14T08:42:33;97965.31;;;-1.10;100.00
58385;BME280;44185;47.844;8.966;2023-02-14T08:44:59;97969.69;;;-1.16;100.00
58385;BME280;44185;47.844;8.966;2023-02-14T08:47:24;97970.53;;;-1.12;100.00
58385;BME280;44185;47.844;8.966;2023-02-14T08:49:50;97964.44;;;-1.11;100.00
58385;BME280;44185;47.844;8.966;2023-02-14T08:52:15;97947.88;;;-1.01;100.00
58385;BME280;44185;47.844;8.966;2023-02-14T08:54:40;97956.63;;;-1.08;100.00
58385;BME280;44185;47.844;8.966;2023-02-14T08:57:07;97958.25;;;-1.01;100.00
58385;BME280;44185;47.844;8.966;2023-02-14T08:59:33;97952.94;;;-0.90;100.00
58385;BME280;44185;47.844;8.966;2023-02-14T09:01:58;97952.94;;;-0.88;100.00
58385;BME280;44185;47.844;8.966;2023-02-14T09:04:24;97952.84;;;-0.82;100.00
58385;BME280;44185;47.844;8.966;2023-02-14T09:06:49;97951.25;;;-0.92;100.00
58385;BME280;44185;47.844;8.966;2023-02-14T09:09:15;97964.09;;;-0.78;100.00
58385;BME280;44185;47.844;8.966;2023-02-14T09:11:40;97958.81;;;-0.73;100.00
58385;BME280;44185;47.844;8.966;2023-02-14T09:14:07;97962.53;;;-0.95;100.00
58385;BME280;44185;47.844;8.966;2023-02-14T09:16:32;97963.56;;;-1.07;100.00
58385;BME280;44185;47.844;8.966;2023-02-14T09:18:58;97959.03;;;-0.92;100.00
58385;BME280;44185;47.844;8.966;2023-02-14T09:21:25;97959.03;;;-0.92;100.00
58385;BME280;44185;47.844;8.966;2023-02-14T09:23:51;97957.28;;;-0.90;100.00
58385;BME280;44185;47.844;8.966;2023-02-14T09:26:17;97955.41;;;-0.79;100.00
58385;BME280;44185;47.844;8.966;2023-02-14T09:28:43;97947.56;;;-0.72;100.00
58385;BME280;44185;47.844;8.966;2023-02-14T09:31:12;97955.38;;;-0.77;100.00
58385;BME280;44185;47.844;8.966;2023-02-14T09:33:38;97945.97;;;-0.86;100.00
58385;BME280;44185;47.844;8.966;2023-02-14T09:36:05;97951.19;;;-0.86;100.00
58385;BME280;44185;47.844;8.966;2023-02-14T09:38:31;97950.47;;;-1.01;100.00
58385;BME280;44185;47.844;8.966;2023-02-14T09:40:56;97956.72;;;-1.19;100.00
58385;BME280;44185;47.844;8.966;2023-02-14T09:43:28;97948.16;;;-1.26;100.00
58385;BME280;44185;47.844;8.966;2023-02-14T09:45:57;97937.94;;;-1.41;100.00
58385;BME280;44185;47.844;8.966;2023-02-14T09:48:28;97936.88;;;-1.23;100.00
58385;BME280;44185;47.844;8.966;2023-02-14T09:50:59;97933.38;;;-1.22;100.00
58385;BME280;44185;47.844;8.966;2023-02-14T09:53:28;97926.34;;;-1.14;100.00
58385;BME280;44185;47.844;8.966;2023-02-14T09:56:01;97923.56;;;-0.93;100.00
58385;BME280;44185;47.844;8.966;2023-02-14T09:58:32;97926.75;;;-0.74;100.00
58385;BME280;44185;47.844;8.966;2023-02-14T10:01:04;97931.25;;;-0.87;100.00
58385;BME280;44185;47.844;8.966;2023-02-14T10:03:40;97925.28;;;-0.94;100.00
58385;BME280;44185;47.844;8.966;2023-02-14T10:06:14;97927.06;;;-1.01;100.00
58385;BME280;44185;47.844;8.966;2023-02-14T10:08:54;97931.19;;;-0.82;100.00
58385;BME280;44185;47.844;8.966;2023-02-14T10:11:22;97927.59;;;-0.70;100.00
58385;BME280;44185;47.844;8.966;2023-02-14T10:13:52;97918.00;;;-0.65;100.00
58385;BME280;44185;47.844;8.966;2023-02-14T10:16:22;97930.16;;;-0.67;100.00
58385;BME280;44185;47.844;8.966;2023-02-14T10:18:54;97923.91;;;-0.55;100.00
58385;BME280;44185;47.844;8.966;2023-02-14T10:21:23;97922.03;;;-0.43;100.00
58385;BME280;44185;47.844;8.966;2023-02-14T10:23:53;97915.78;;;-0.30;100.00
58385;BME280;44185;47.844;8.966;2023-02-14T10:26:26;97926.06;;;-0.24;100.00
58385;BME280;44185;47.844;8.966;2023-02-14T10:28:53;97919.97;;;-0.19;100.00
58385;BME280;44185;47.844;8.966;2023-02-14T10:31:20;97908.72;;;-0.21;100.00
58385;BME280;44185;47.844;8.966;2023-02-14T10:33:53;97919.16;;;-0.26;100.00
58385;BME280;44185;47.844;8.966;2023-02-14T10:36:36;97902.50;;;-0.13;100.00
58385;BME280;44185;47.844;8.966;2023-02-14T10:39:16;97898.34;;;-0.25;100.00
58385;BME280;44185;47.844;8.966;2023-02-14T10:41:49;97896.91;;;-0.45;100.00
58385;BME280;44185;47.844;8.966;2023-02-14T10:44:29;97902.03;;;-0.38;100.00
58385;BME280;44185;47.844;8.966;2023-02-14T10:47:02;97891.94;;;-0.62;100.00
58385;BME280;44185;47.844;8.966;2023-02-14T10:49:39;97889.34;;;-0.63;100.00
58385;BME280;44185;47.844;8.966;2023-02-14T10:52:14;97875.41;;;-0.58;100.00
58385;BME280;44185;47.844;8.966;2023-02-14T10:54:44;97877.09;;;-0.53;100.00
58385;BME280;44185;47.844;8.966;2023-02-14T10:57:14;97879.34;;;-0.31;100.00
58385;BME280;44185;47.844;8.966;2023-02-14T10:59:48;97884.31;;;-0.14;100.00
58385;BME280;44185;47.844;8.966;2023-02-14T11:02:17;97876.44;;;-0.09;100.00
58385;BME280;44185;47.844;8.966;2023-02-14T11:04:46;97875.38;;;0.01;100.00
58385;BME280;44185;47.844;8.966;2023-02-14T11:07:14;97870.88;;;0.13;100.00
58385;BME280;44185;47.844;8.966;2023-02-14T11:09:39;97871.75;;;0.12;100.00
58385;BME280;44185;47.844;8.966;2023-02-14T11:12:05;97862.88;;;0.24;100.00
58385;BME280;44185;47.844;8.966;2023-02-14T11:14:32;97861.88;;;0.29;100.00
58385;BME280;44185;47.844;8.966;2023-02-14T11:16:59;97860.28;;;0.24;100.00
58385;BME280;44185;47.844;8.966;2023-02-14T11:19:26;97857.13;;;0.04;100.00
58385;BME280;44185;47.844;8.966;2023-02-14T11:21:55;97857.63;;;0.25;100.00
58385;BME280;44185;47.844;8.966;2023-02-14T11:24:27;97854.16;;;0.26;100.00
58385;BME280;44185;47.844;8.966;2023-02-14T11:26:54;97847.38;;;0.16;100.00
58385;BME280;44185;47.844;8.966;2023-02-14T11:29:25;97844.69;;;0.19;100.00
58385;BME280;44185;47.844;8.966;2023-02-14T11:31:51;97850.69;;;0.26;100.00
58385;BME280;44185;47.844;8.966;2023-02-14T11:34:35;97852.50;;;0.20;100.00
58385;BME280;44185;47.844;8.966;2023-02-14T11:37:23;97846.34;;;0.26;100.00
58385;BME280;44185;47.844;8.966;2023-02-14T11:39:50;97842.06;;;0.22;100.00
58385;BME280;44185;47.844;8.966;2023-02-14T11:42:32;97834.38;;;0.16;100.00
58385;BME280;44185;47.844;8.966;2023-02-14T11:44:58;97833.50;;;0.15;100.00
58385;BME280;44185;47.844;8.966;2023-02-14T11:47:26;97829.44;;;0.00;100.00
58385;BME280;44185;47.844;8.966;2023-02-14T11:49:56;97825.69;;;0.14;100.00
58385;BME280;44185;47.844;8.966;2023-02-14T11:52:23;97824.81;;;0.15;100.00
58385;BME280;44185;47.844;8.966;2023-02-14T11:54:49;97809.16;;;0.16;100.00
58385;BME280;44185;47.844;8.966;2023-02-14T11:57:18;97817.41;;;0.42;100.00
58385;BME280;44185;47.844;8.966;2023-02-14T11:59:48;97806.88;;;0.47;100.00
58385;BME280;44185;47.844;8.966;2023-02-14T12:02:29;97805.03;;;0.52;100.00
58385;BME280;44185;47.844;8.966;2023-02-14T12:04:55;97797.78;;;0.68;100.00
58385;BME280;44185;47.844;8.966;2023-02-14T12:07:27;97803.03;;;0.65;100.00
58385;BME280;44185;47.844;8.966;2023-02-14T12:10:18;97803.09;;;0.63;100.00
58385;BME280;44185;47.844;8.966;2023-02-14T12:12:52;97802.13;;;0.68;100.00
58385;BME280;44185;47.844;8.966;2023-02-14T12:15:32;97789.09;;;0.68;100.00
58385;BME280;44185;47.844;8.966;2023-02-14T12:18:15;97789.50;;;0.90;100.00
58385;BME280;44185;47.844;8.966;2023-02-14T12:20:50;97776.78;;;1.16;100.00
58385;BME280;44185;47.844;8.966;2023-02-14T12:23:22;97776.31;;;1.36;100.00
58385;BME280;44185;47.844;8.966;2023-02-14T12:25:55;97775.13;;;1.50;100.00
58385;BME280;44185;47.844;8.966;2023-02-14T12:28:27;97776.13;;;1.44;100.00
58385;BME280;44185;47.844;8.966;2023-02-14T12:30:55;97772.75;;;1.39;100.00
58385;BME280;44185;47.844;8.966;2023-02-14T12:33:21;97769.03;;;1.49;100.00
58385;BME280;44185;47.844;8.966;2023-02-14T12:35:53;97770.19;;;1.37;100.00
58385;BME280;44185;47.844;8.966;2023-02-14T12:38:31;97765.88;;;1.36;100.00
58385;BME280;44185;47.844;8.966;2023-02-14T12:41:07;97760.19;;;1.57;100.00
58385;BME280;44185;47.844;8.966;2023-02-14T12:43:44;97764.41;;;1.61;100.00
58385;BME280;44185;47.844;8.966;2023-02-14T12:46:38;97757.78;;;1.82;100.00
58385;BME280;44185;47.844;8.966;2023-02-14T12:49:19;97754.84;;;1.96;100.00
58385;BME280;44185;47.844;8.966;2023-02-14T12:51:57;97740.88;;;1.97;100.00
58385;BME280;44185;47.844;8.966;2023-02-14T12:54:34;97750.09;;;2.11;100.00
58385;BME280;44185;47.844;8.966;2023-02-14T12:57:10;97746.75;;;2.06;100.00
58385;BME280;44185;47.844;8.966;2023-02-14T12:59:46;97739.69;;;2.09;100.00
58385;BME280;44185;47.844;8.966;2023-02-14T13:02:41;97738.97;;;2.03;100.00
58385;BME280;44185;47.844;8.966;2023-02-14T13:05:15;97732.13;;;1.98;100.00
58385;BME280;44185;47.844;8.966;2023-02-14T13:07:55;97730.69;;;1.88;100.00
58385;BME280;44185;47.844;8.966;2023-02-14T13:10:37;97726.25;;;1.90;100.00